createdAt,value
2023-04-15T00:01:19.143Z,41.90
2023-04-15T00:03:46.721Z,41.67
2023-04-15T00:06:13.889Z,42.17
2023-04-15T00:08:40.607Z,41.85
2023-04-15T00:11:07.374Z,41.87
2023-04-15T00:13:36.724Z,41.62
2023-04-15T00:16:03.491Z,41.42
2023-04-15T00:18:30.645Z,42.14
2023-04-15T00:20:57.425Z,42.00
2023-04-15T00:23:24.156Z,41.59
2023-04-15T00:25:51.320Z,41.92
2023-04-15T00:28:18.583Z,41.90
2023-04-15T00:30:46.076Z,42.12
2023-04-15T00:33:13.785Z,41.81
2023-04-15T00:35:40.779Z,41.80
2023-04-15T00:38:10.658Z,41.63
2023-04-15T00:40:38.072Z,41.45
2023-04-15T00:43:04.781Z,41.66
2023-04-15T00:45:32.129Z,41.51
2023-04-15T00:47:59.426Z,42.08
2023-04-15T00:50:26.271Z,41.86
2023-04-15T00:52:53.025Z,41.81
2023-04-15T00:55:19.844Z,41.69
2023-04-15T00:57:47.029Z,41.59
2023-04-15T01:00:14.183Z,41.82
2023-04-15T01:02:41.336Z,41.85
2023-04-15T01:05:08.761Z,41.67
2023-04-15T01:07:35.568Z,41.70
2023-04-15T01:10:04.160Z,41.84
2023-04-15T01:12:33.345Z,41.60
2023-04-15T01:15:00.494Z,42.17
2023-04-15T01:17:27.369Z,41.55
2023-04-15T01:19:56.784Z,41.79
2023-04-15T01:22:24.524Z,41.88
2023-04-15T01:25:12.608Z,41.75
2023-04-15T01:27:41.518Z,41.89
2023-04-15T01:30:09.225Z,41.57
2023-04-15T01:32:36.542Z,41.79
2023-04-15T01:35:03.422Z,41.50
2023-04-15T01:37:31.019Z,41.80
2023-04-15T01:39:58.307Z,41.57
2023-04-15T01:42:25.070Z,41.45
2023-04-15T01:44:52.143Z,41.60
2023-04-15T01:47:18.911Z,41.68
2023-04-15T01:49:45.753Z,42.14
2023-04-15T01:52:12.472Z,42.17
2023-04-15T01:54:39.217Z,41.61
2023-04-15T01:57:05.941Z,41.77
2023-04-15T01:59:32.658Z,41.75
2023-04-15T02:02:00.220Z,42.05
2023-04-15T02:04:28.181Z,41.54
2023-04-15T02:06:54.936Z,41.98
2023-04-15T02:09:21.713Z,41.48
2023-04-15T02:11:48.632Z,42.09
2023-04-15T02:14:15.365Z,42.16
2023-04-15T02:16:42.097Z,41.54
2023-04-15T02:19:09.133Z,41.70
2023-04-15T02:21:36.078Z,41.45
2023-04-15T02:24:02.821Z,41.53
2023-04-15T02:26:32.367Z,41.61
2023-04-15T02:28:59.961Z,41.96
2023-04-15T02:31:27.081Z,42.09
2023-04-15T02:33:53.776Z,41.79
2023-04-15T02:36:21.597Z,41.88
2023-04-15T02:38:48.391Z,41.47
2023-04-15T02:41:15.188Z,41.60
2023-04-15T02:43:42.072Z,41.90
2023-04-15T02:46:08.855Z,42.14
2023-04-15T02:48:36.290Z,41.99
2023-04-15T02:51:20.558Z,41.83
2023-04-15T02:53:48.791Z,41.72
2023-04-15T02:56:18.585Z,41.95
2023-04-15T02:58:45.959Z,41.96
2023-04-15T03:01:12.812Z,42.15
2023-04-15T03:03:39.678Z,41.84
2023-04-15T03:06:06.828Z,42.16
2023-04-15T03:08:33.529Z,42.04
2023-04-15T03:11:01.108Z,41.66
2023-04-15T03:13:27.897Z,41.78
2023-04-15T03:15:54.691Z,41.84
2023-04-15T03:18:21.867Z,42.08
2023-04-15T03:20:48.703Z,42.25
2023-04-15T03:23:15.597Z,42.19
2023-04-15T03:25:42.465Z,41.65
2023-04-15T03:28:09.284Z,42.17
2023-04-15T03:30:36.198Z,41.51
2023-04-15T03:33:03.022Z,41.63
2023-04-15T03:35:29.787Z,41.73
2023-04-15T03:37:56.538Z,42.09
2023-04-15T03:40:23.248Z,42.10
2023-04-15T03:42:50.008Z,42.08
2023-04-15T03:45:16.939Z,42.08
2023-04-15T03:47:43.913Z,42.02
2023-04-15T03:50:11.204Z,41.56
2023-04-15T03:52:38.134Z,42.23
2023-04-15T03:55:05.438Z,41.74
2023-04-15T03:57:32.191Z,41.81
2023-04-15T03:59:58.885Z,41.85
2023-04-15T04:02:26.308Z,42.10
2023-04-15T04:04:53.251Z,42.00
2023-04-15T04:07:20.028Z,41.72
2023-04-15T04:09:47.441Z,42.22
2023-04-15T04:12:14.686Z,42.03
2023-04-15T04:14:41.416Z,42.19
2023-04-15T04:17:08.413Z,41.72
2023-04-15T04:19:35.868Z,41.46
2023-04-15T04:22:02.673Z,42.19
2023-04-15T04:24:29.383Z,41.60
2023-04-15T04:26:57.750Z,41.75
2023-04-15T04:29:24.474Z,41.95
2023-04-15T04:31:51.437Z,42.17
2023-04-15T04:34:18.266Z,41.80
2023-04-15T04:36:45.056Z,42.14
2023-04-15T04:39:11.775Z,41.94
2023-04-15T04:41:38.512Z,41.73
2023-04-15T04:44:05.278Z,41.93
2023-04-15T04:46:31.970Z,41.94
2023-04-15T04:48:58.669Z,42.00
2023-04-15T04:51:26.412Z,42.06
2023-04-15T04:53:53.213Z,41.54
2023-04-15T04:56:19.970Z,42.16
2023-04-15T04:58:46.953Z,41.62
2023-04-15T05:01:13.794Z,41.52
2023-04-15T05:03:40.839Z,42.18
2023-04-15T05:06:08.995Z,41.48
2023-04-15T05:08:35.759Z,41.79
2023-04-15T05:11:03.548Z,41.42
2023-04-15T05:13:30.413Z,41.42
2023-04-15T05:15:57.229Z,41.48
2023-04-15T05:18:24.081Z,42.00
2023-04-15T05:20:50.993Z,41.77
2023-04-15T05:23:17.962Z,41.83
2023-04-15T05:25:44.720Z,42.00
2023-04-15T05:28:11.678Z,41.75
2023-04-15T05:30:38.904Z,41.31
2023-04-15T05:33:05.698Z,41.79
2023-04-15T05:35:32.420Z,41.83
2023-04-15T05:37:59.136Z,41.93
2023-04-15T05:40:25.859Z,41.61
2023-04-15T05:42:53.014Z,41.43
2023-04-15T05:45:19.778Z,41.77
2023-04-15T05:47:47.112Z,41.81
2023-04-15T05:50:13.895Z,41.64
2023-04-15T05:52:40.810Z,42.01
2023-04-15T05:55:07.804Z,41.61
2023-04-15T05:57:34.498Z,41.75
2023-04-15T06:00:01.165Z,42.15
2023-04-15T06:02:28.207Z,41.27
2023-04-15T06:04:55.033Z,41.81
2023-04-15T06:07:21.767Z,41.81
2023-04-15T06:09:49.307Z,41.98
2023-04-15T06:12:17.222Z,41.77
2023-04-15T06:14:43.916Z,41.59
2023-04-15T06:17:10.792Z,41.41
2023-04-15T06:19:37.597Z,41.64
2023-04-15T06:22:04.481Z,41.89
2023-04-15T06:24:31.883Z,41.36
2023-04-15T06:26:58.591Z,41.30
2023-04-15T06:29:25.519Z,41.97
2023-04-15T06:31:52.387Z,41.77
2023-04-15T06:34:19.190Z,41.68
2023-04-15T06:36:46.126Z,41.52
2023-04-15T06:39:13.103Z,41.15
2023-04-15T06:41:40.067Z,41.59
2023-04-15T06:44:07.270Z,41.80
2023-04-15T06:46:34.000Z,41.79
2023-04-15T06:49:00.862Z,41.74
2023-04-15T06:51:27.927Z,41.35
2023-04-15T06:53:54.948Z,41.14
2023-04-15T06:56:22.140Z,41.44
2023-04-15T06:58:49.026Z,41.77
2023-04-15T07:01:15.839Z,41.19
2023-04-15T07:03:43.041Z,41.66
2023-04-15T07:06:10.363Z,41.38
2023-04-15T07:08:37.251Z,41.27
2023-04-15T07:11:04.020Z,41.41
2023-04-15T07:13:32.231Z,41.25
2023-04-15T07:15:59.569Z,41.04
2023-04-15T07:18:26.386Z,41.28
2023-04-15T07:20:53.199Z,41.33
2023-04-15T07:23:19.962Z,41.69
2023-04-15T07:25:47.621Z,41.83
2023-04-15T07:28:14.386Z,41.57
2023-04-15T07:30:41.775Z,41.29
2023-04-15T07:33:08.641Z,41.46
2023-04-15T07:35:35.411Z,41.29
2023-04-15T07:38:02.237Z,41.80
2023-04-15T07:40:29.310Z,41.42
2023-04-15T07:42:58.916Z,41.12
2023-04-15T07:45:25.735Z,41.47
2023-04-15T07:47:52.613Z,41.58
2023-04-15T07:50:19.977Z,41.42
2023-04-15T07:52:46.771Z,41.50
2023-04-15T07:55:13.591Z,41.23
2023-04-15T07:57:40.345Z,41.78
2023-04-15T08:00:08.045Z,41.49
2023-04-15T08:02:36.948Z,41.82
2023-04-15T08:05:05.509Z,41.23
2023-04-15T08:07:32.800Z,41.09
2023-04-15T08:09:59.545Z,41.27
2023-04-15T08:12:26.493Z,41.63
2023-04-15T08:14:53.572Z,41.88
2023-04-15T08:17:20.868Z,41.44
2023-04-15T08:19:48.690Z,41.62
2023-04-15T08:22:18.532Z,41.80
2023-04-15T08:25:55.533Z,41.80
2023-04-15T08:28:20.719Z,41.36
2023-04-15T08:30:47.537Z,41.47
2023-04-15T08:33:14.278Z,41.40
2023-04-15T08:35:41.056Z,41.41
2023-04-15T08:38:07.921Z,41.70
2023-04-15T08:40:41.878Z,41.70
2023-04-15T08:43:12.910Z,41.40
2023-04-15T08:45:40.520Z,41.18
2023-04-15T08:48:10.018Z,41.42
2023-04-15T08:50:36.878Z,41.06
2023-04-15T08:53:04.018Z,41.60
2023-04-15T08:55:36.480Z,41.23
2023-04-15T08:58:03.541Z,40.99
2023-04-15T09:00:31.300Z,41.53
2023-04-15T09:02:59.603Z,40.70
2023-04-15T09:05:26.796Z,40.87
2023-04-15T09:07:53.732Z,41.10
2023-04-15T09:10:20.467Z,40.86
2023-04-15T09:12:47.407Z,40.88
2023-04-15T09:15:15.746Z,41.37
2023-04-15T09:17:44.475Z,41.39
2023-04-15T09:20:16.116Z,41.40
2023-04-15T09:22:47.274Z,41.21
2023-04-15T09:25:22.868Z,41.39
2023-04-15T09:27:50.761Z,41.04
2023-04-15T09:30:17.816Z,40.80
2023-04-15T09:33:08.980Z,40.76
2023-04-15T09:35:36.959Z,41.04
2023-04-15T09:38:09.017Z,40.84
2023-04-15T09:40:36.157Z,40.70
2023-04-15T09:43:05.462Z,40.66
2023-04-15T09:45:34.360Z,41.14
2023-04-15T09:48:17.570Z,41.46
2023-04-15T09:50:45.196Z,41.50
2023-04-15T09:53:12.624Z,41.39
2023-04-15T09:55:39.353Z,41.32
2023-04-15T09:58:17.650Z,40.91
2023-04-15T10:00:44.425Z,41.14
2023-04-15T10:03:12.098Z,40.94
2023-04-15T10:05:39.755Z,41.02
2023-04-15T10:08:06.908Z,40.79
2023-04-15T10:10:34.738Z,40.76
2023-04-15T10:13:02.928Z,41.08
2023-04-15T10:15:30.774Z,41.31
2023-04-15T10:18:00.706Z,40.87
2023-04-15T10:20:29.491Z,40.68
2023-04-15T10:22:57.105Z,41.39
2023-04-15T10:25:26.027Z,40.77
2023-04-15T10:27:53.429Z,40.78
2023-04-15T10:30:20.929Z,41.31
2023-04-15T10:32:48.403Z,41.18
2023-04-15T10:35:17.924Z,41.14
2023-04-15T10:37:44.661Z,41.35
2023-04-15T10:40:28.336Z,40.81
2023-04-15T10:42:56.807Z,40.88
2023-04-15T10:45:27.445Z,40.87
2023-04-15T10:48:00.501Z,40.66
2023-04-15T10:50:30.881Z,41.69
2023-04-15T10:52:57.880Z,41.13
2023-04-15T10:55:33.032Z,40.77
2023-04-15T10:58:01.693Z,40.63
2023-04-15T11:00:32.997Z,41.27
2023-04-15T11:03:07.593Z,41.14
2023-04-15T11:05:43.690Z,41.26
2023-04-15T11:08:11.328Z,40.97
2023-04-15T11:10:38.038Z,40.71
2023-04-15T11:13:11.125Z,40.77
2023-04-15T11:15:42.118Z,41.47
2023-04-15T11:18:23.210Z,41.32
2023-04-15T11:20:50.999Z,40.74
2023-04-15T11:23:19.749Z,41.24
2023-04-15T11:25:46.494Z,41.27
2023-04-15T11:28:14.231Z,40.95
2023-04-15T11:30:42.354Z,41.25
2023-04-15T11:33:12.354Z,40.97
2023-04-15T11:35:41.515Z,40.84
2023-04-15T11:38:16.849Z,41.30
2023-04-15T11:40:46.710Z,40.72
2023-04-15T11:43:16.306Z,41.48
2023-04-15T11:45:49.128Z,41.43
2023-04-15T11:48:16.120Z,40.93
2023-04-15T11:50:42.970Z,41.03
2023-04-15T11:53:12.403Z,40.99
2023-04-15T11:55:43.537Z,40.66
2023-04-15T11:58:20.733Z,41.01
2023-04-15T12:01:01.160Z,41.00
2023-04-15T12:03:36.603Z,41.00
2023-04-15T12:06:22.723Z,40.97
2023-04-15T12:08:55.805Z,40.61
2023-04-15T12:11:31.602Z,41.24
2023-04-15T12:14:03.320Z,41.00
2023-04-15T12:16:30.786Z,41.06
2023-04-15T12:18:59.647Z,40.71
2023-04-15T12:21:29.369Z,41.18
2023-04-15T12:23:58.114Z,41.36
2023-04-15T12:26:33.701Z,40.85
2023-04-15T12:29:11.784Z,41.20
2023-04-15T12:31:48.784Z,41.57
2023-04-15T12:34:16.086Z,41.30
2023-04-15T12:36:43.728Z,41.41
2023-04-15T12:39:10.711Z,41.75
2023-04-15T12:41:37.491Z,41.29
2023-04-15T12:44:04.563Z,41.53
2023-04-15T12:46:31.609Z,41.16
2023-04-15T12:48:58.695Z,41.62
2023-04-15T12:51:27.989Z,41.95
2023-04-15T12:53:54.814Z,41.55
2023-04-15T12:56:21.545Z,41.72
2023-04-15T12:58:48.269Z,41.94
2023-04-15T13:01:15.228Z,41.85
2023-04-15T13:03:42.255Z,41.26
2023-04-15T13:06:09.108Z,41.64
2023-04-15T13:08:38.544Z,41.88
2023-04-15T13:11:07.518Z,41.84
2023-04-15T13:13:34.447Z,41.56
2023-04-15T13:16:01.185Z,41.76
2023-04-15T13:18:28.095Z,41.82
2023-04-15T13:20:55.609Z,41.47
2023-04-15T13:23:22.377Z,41.47
2023-04-15T13:25:49.154Z,41.98
2023-04-15T13:28:15.944Z,41.89
2023-04-15T13:30:44.263Z,41.93
2023-04-15T13:33:11.538Z,41.89
2023-04-15T13:35:38.456Z,41.61
2023-04-15T13:38:05.156Z,41.65
2023-04-15T13:40:31.874Z,41.70
2023-04-15T13:42:58.854Z,41.01
2023-04-15T13:45:26.124Z,41.80
2023-04-15T13:47:53.403Z,41.89
2023-04-15T13:50:20.240Z,41.63
2023-04-15T13:52:47.657Z,41.37
2023-04-15T13:55:20.409Z,41.40
2023-04-15T13:57:48.114Z,41.91
2023-04-15T14:00:15.768Z,42.22
2023-04-15T14:02:42.699Z,42.00
2023-04-15T14:05:10.660Z,42.25
2023-04-15T14:07:37.574Z,41.43
2023-04-15T14:10:04.886Z,42.05
2023-04-15T14:12:32.211Z,42.00
2023-04-15T14:14:58.970Z,41.86
2023-04-15T14:17:25.695Z,42.02
2023-04-15T14:19:52.429Z,41.56
2023-04-15T14:22:19.237Z,42.22
2023-04-15T14:24:46.433Z,41.88
2023-04-15T14:27:13.221Z,42.04
2023-04-15T14:29:39.977Z,42.06
2023-04-15T14:32:12.269Z,41.79
2023-04-15T14:34:40.271Z,41.93
2023-04-15T14:37:07.315Z,41.92
2023-04-15T14:39:34.161Z,41.99
2023-04-15T14:42:01.578Z,41.62
2023-04-15T14:44:28.826Z,42.03
2023-04-15T14:46:56.259Z,42.35
2023-04-15T14:49:23.893Z,42.07
2023-04-15T14:51:50.885Z,42.13
2023-04-15T14:54:17.659Z,42.29
2023-04-15T14:56:44.430Z,42.29
2023-04-15T14:59:11.154Z,41.94
2023-04-15T15:01:38.079Z,42.39
2023-04-15T15:04:05.112Z,42.02
2023-04-15T15:06:31.942Z,41.92
2023-04-15T15:08:58.713Z,42.23
2023-04-15T15:11:25.809Z,41.55
2023-04-15T15:13:52.652Z,42.32
2023-04-15T15:16:19.403Z,41.87
2023-04-15T15:18:46.422Z,42.13
2023-04-15T15:21:13.315Z,41.87
2023-04-15T15:23:39.998Z,42.29
2023-04-15T15:26:06.974Z,42.03
2023-04-15T15:28:34.726Z,41.61
2023-04-15T15:31:01.523Z,42.01
2023-04-15T15:33:30.087Z,41.81
2023-04-15T15:35:58.208Z,42.35
2023-04-15T15:38:25.091Z,42.33
2023-04-15T15:40:52.383Z,41.99
2023-04-15T15:43:19.107Z,41.78
2023-04-15T15:45:45.959Z,42.09
2023-04-15T15:48:12.909Z,42.22
2023-04-15T15:50:43.018Z,41.63
2023-04-15T15:53:11.754Z,42.29
2023-04-15T15:55:38.677Z,42.25
2023-04-15T15:58:05.450Z,42.00
2023-04-15T16:00:32.316Z,41.55
2023-04-15T16:05:28.784Z,41.89
2023-04-15T16:07:55.541Z,41.95
2023-04-15T16:10:22.275Z,42.14
2023-04-15T16:12:49.000Z,41.76
2023-04-15T16:15:15.941Z,41.76
2023-04-15T16:17:42.788Z,42.41
2023-04-15T16:20:09.898Z,41.82
2023-04-15T16:22:36.909Z,41.80
2023-04-15T16:25:03.956Z,42.36
2023-04-15T16:27:30.738Z,42.06
2023-04-15T16:29:57.584Z,42.47
2023-04-15T16:32:24.363Z,41.95
2023-04-15T16:34:52.731Z,42.09
2023-04-15T16:37:21.039Z,42.44
2023-04-15T16:39:48.123Z,42.14
2023-04-15T16:42:14.920Z,42.08
2023-04-15T16:44:41.830Z,42.14
2023-04-15T16:47:11.299Z,42.18
2023-04-15T16:49:38.503Z,41.95
2023-04-15T16:52:05.325Z,42.16
2023-04-15T16:54:33.717Z,42.18
2023-04-15T16:57:02.774Z,41.96
2023-04-15T16:59:29.506Z,42.40
2023-04-15T17:01:56.519Z,42.39
2023-04-15T17:04:23.498Z,42.00
2023-04-15T17:06:50.462Z,41.87
2023-04-15T17:09:17.476Z,42.36
2023-04-15T17:11:45.737Z,41.91
2023-04-15T17:14:12.617Z,42.13
2023-04-15T17:16:40.581Z,42.12
2023-04-15T17:19:07.303Z,42.70
2023-04-15T17:21:34.942Z,42.34
2023-04-15T17:24:01.867Z,42.72
2023-04-15T17:26:29.066Z,42.31
2023-04-15T17:28:55.748Z,42.28
2023-04-15T17:31:22.857Z,42.32
2023-04-15T17:33:55.446Z,42.38
2023-04-15T17:36:29.792Z,42.60
2023-04-15T17:38:56.687Z,42.18
2023-04-15T17:41:23.585Z,42.02
2023-04-15T17:43:50.663Z,42.68
2023-04-15T17:46:19.403Z,42.73
2023-04-15T17:48:46.791Z,42.35
2023-04-15T17:51:13.772Z,42.60
2023-04-15T17:53:40.436Z,42.49
2023-04-15T17:56:07.175Z,42.04
2023-04-15T17:58:39.416Z,42.35
2023-04-15T18:01:06.905Z,42.18
2023-04-15T18:03:35.454Z,42.60
2023-04-15T18:06:02.440Z,42.67
2023-04-15T18:08:29.269Z,42.21
2023-04-15T18:10:56.582Z,42.43
2023-04-15T18:13:23.300Z,42.46
2023-04-15T18:15:51.514Z,42.76
2023-04-15T18:18:18.372Z,42.47
2023-04-15T18:20:45.088Z,42.54
2023-04-15T18:23:11.932Z,42.17
2023-04-15T18:25:38.667Z,42.60
2023-04-15T18:28:06.046Z,42.22
2023-04-15T18:30:32.765Z,42.42
2023-04-15T18:32:59.606Z,42.72
2023-04-15T18:35:26.484Z,42.19
2023-04-15T18:37:59.233Z,42.55
2023-04-15T18:40:26.053Z,42.10
2023-04-15T18:42:53.157Z,42.43
2023-04-15T18:45:19.887Z,42.68
2023-04-15T18:47:46.619Z,42.27
2023-04-15T18:50:13.463Z,42.60
2023-04-15T18:52:40.253Z,42.51
2023-04-15T18:55:07.639Z,42.60
2023-04-15T18:57:35.793Z,42.17
2023-04-15T19:00:04.622Z,42.13
2023-04-15T19:02:31.779Z,42.37
2023-04-15T19:04:58.644Z,42.31
2023-04-15T19:07:25.591Z,42.42
2023-04-15T19:09:53.437Z,42.15
2023-04-15T19:12:20.220Z,42.51
2023-04-15T19:14:47.073Z,42.10
2023-04-15T19:17:13.996Z,42.31
2023-04-15T19:19:40.861Z,42.43
2023-04-15T19:22:08.986Z,42.15
2023-04-15T19:24:36.769Z,42.49
2023-04-15T19:27:03.554Z,42.47
2023-04-15T19:29:30.254Z,42.16
2023-04-15T19:31:57.344Z,42.64
2023-04-15T19:34:25.232Z,42.34
2023-04-15T19:36:52.015Z,42.80
2023-04-15T19:39:18.976Z,42.27
2023-04-15T19:41:46.077Z,42.05
2023-04-15T19:44:13.797Z,42.82
2023-04-15T19:46:42.139Z,42.33
2023-04-15T19:49:08.852Z,42.73
2023-04-15T19:51:35.633Z,42.26
2023-04-15T19:54:02.483Z,42.06
2023-04-15T19:56:30.397Z,42.36
2023-04-15T19:58:59.895Z,42.71
2023-04-15T20:01:27.670Z,42.70
2023-04-15T20:03:54.873Z,42.42
2023-04-15T20:06:22.134Z,42.23
2023-04-15T20:08:48.864Z,42.76
2023-04-15T20:11:15.854Z,42.11
2023-04-15T20:13:42.654Z,42.03
2023-04-15T20:16:09.685Z,42.11
2023-04-15T20:18:36.569Z,42.54
2023-04-15T20:21:03.341Z,42.79
2023-04-15T20:23:30.144Z,42.28
2023-04-15T20:25:56.867Z,42.13
2023-04-15T20:28:26.311Z,42.51
2023-04-15T20:30:53.956Z,42.37
2023-04-15T20:33:22.567Z,42.81
2023-04-15T20:35:49.410Z,42.64
2023-04-15T20:38:16.659Z,42.43
2023-04-15T20:40:43.813Z,42.48
2023-04-15T20:43:10.575Z,42.51
2023-04-15T20:45:37.529Z,42.11
2023-04-15T20:48:04.848Z,42.27
2023-04-15T20:50:31.988Z,42.84
2023-04-15T20:52:58.746Z,42.76
2023-04-15T20:55:25.796Z,42.76
2023-04-15T20:57:52.645Z,42.83
2023-04-15T21:00:19.385Z,42.29
2023-04-15T21:02:46.221Z,42.52
2023-04-15T21:05:13.120Z,42.88
2023-04-15T21:07:41.136Z,42.87
2023-04-15T21:10:08.103Z,42.26
2023-04-15T21:12:34.833Z,42.30
2023-04-15T21:15:01.950Z,42.51
2023-04-15T21:17:28.724Z,42.23
2023-04-15T21:19:55.532Z,42.53
2023-04-15T21:22:22.284Z,42.80
2023-04-15T21:24:49.035Z,42.42
2023-04-15T21:27:15.989Z,42.75
2023-04-15T21:29:42.720Z,42.55
2023-04-15T21:32:09.515Z,42.21
2023-04-15T21:34:36.309Z,42.14
2023-04-15T21:37:03.268Z,42.50
2023-04-15T21:39:30.045Z,42.58
2023-04-15T21:41:58.086Z,42.57
2023-04-15T21:44:25.112Z,42.75
2023-04-15T21:46:52.152Z,43.00
2023-04-15T21:49:20.466Z,42.35
2023-04-15T21:51:48.141Z,42.45
2023-04-15T21:54:14.917Z,42.56
2023-04-15T21:56:42.668Z,42.12
2023-04-15T21:59:09.490Z,42.07
2023-04-15T22:01:36.413Z,42.19
2023-04-15T22:04:03.511Z,42.22
2023-04-15T22:06:30.330Z,42.47
2023-04-15T22:08:57.981Z,42.55
2023-04-15T22:11:29.716Z,42.42
2023-04-15T22:13:57.672Z,42.61
2023-04-15T22:16:28.553Z,42.57
2023-04-15T22:18:55.878Z,42.75
2023-04-15T22:21:23.093Z,42.53
2023-04-15T22:23:50.074Z,42.45
2023-04-15T22:26:16.949Z,42.86
2023-04-15T22:28:43.673Z,42.57
2023-04-15T22:31:10.718Z,42.50
2023-04-15T22:33:37.574Z,42.13
2023-04-15T22:36:04.426Z,42.54
2023-04-15T22:38:31.288Z,42.31
2023-04-15T22:40:58.575Z,42.68
2023-04-15T22:43:26.104Z,42.80
2023-04-15T22:45:55.785Z,42.67
2023-04-15T22:48:22.894Z,42.58
2023-04-15T22:50:50.158Z,42.55
2023-04-15T22:53:17.989Z,42.50
2023-04-15T22:55:46.738Z,42.66
2023-04-15T22:58:13.928Z,42.76
2023-04-15T23:00:40.785Z,42.83
2023-04-15T23:03:07.632Z,42.75
2023-04-15T23:05:34.717Z,42.67
2023-04-15T23:08:01.615Z,42.46
2023-04-15T23:10:28.774Z,42.56
2023-04-15T23:12:55.486Z,42.60
2023-04-15T23:15:22.513Z,42.18
2023-04-15T23:17:49.366Z,42.51
2023-04-15T23:20:16.940Z,42.37
2023-04-15T23:22:43.680Z,42.47
2023-04-15T23:25:10.496Z,42.90
2023-04-15T23:27:37.368Z,42.50
2023-04-15T23:30:04.518Z,42.90
2023-04-15T23:32:31.353Z,42.62
2023-04-15T23:34:58.153Z,42.10
2023-04-15T23:37:24.882Z,42.35
2023-04-15T23:39:51.588Z,42.76
2023-04-15T23:42:18.287Z,43.07
2023-04-15T23:44:45.150Z,42.59
2023-04-15T23:47:11.871Z,42.57
2023-04-15T23:49:41.018Z,43.01
2023-04-15T23:52:08.099Z,42.98
2023-04-15T23:54:34.981Z,42.33
2023-04-15T23:57:04.683Z,42.44
2023-04-15T23:59:31.759Z,42.39
